sensor_id;sensor_type;location;lat;lon;timestamp;temperature;humidity
20070;DHT22;10195;50.868;4.382;2022-12-18T00:01:34;-2.20;99.90
20070;DHT22;10195;50.868;4.382;2022-12-18T00:04:02;-2.10;99.90
20070;DHT22;10195;50.868;4.382;2022-12-18T00:06:29;-2.20;99.90
20070;DHT22;10195;50.868;4.382;2022-12-18T00:08:57;-2.20;99.90
20070;DHT22;10195;50.868;4.382;2022-12-18T00:11:25;-2.10;99.90
20070;DHT22;10195;50.868;4.382;2022-12-18T00:13:52;-2.10;99.90
20070;DHT22;10195;50.868;4.382;2022-12-18T00:16:21;-2.10;99.90
20070;DHT22;10195;50.868;4.382;2022-12-18T00:18:48;-1.90;99.90
20070;DHT22;10195;50.868;4.382;2022-12-18T00:21:18;-1.80;99.90
20070;DHT22;10195;50.868;4.382;2022-12-18T00:23:45;-2.00;99.90
20070;DHT22;10195;50.868;4.382;2022-12-18T00:26:14;-2.00;99.90
20070;DHT22;10195;50.868;4.382;2022-12-18T00:28:41;-2.10;99.90
20070;DHT22;10195;50.868;4.382;2022-12-18T00:31:09;-2.20;99.90
20070;DHT22;10195;50.868;4.382;2022-12-18T00:33:36;-2.20;99.90
20070;DHT22;10195;50.868;4.382;2022-12-18T00:36:15;-2.10;99.90
20070;DHT22;10195;50.868;4.382;2022-12-18T00:38:42;-2.40;99.90
20070;DHT22;10195;50.868;4.382;2022-12-18T00:41:09;-2.60;99.90
20070;DHT22;10195;50.868;4.382;2022-12-18T00:43:36;-2.60;99.90
20070;DHT22;10195;50.868;4.382;2022-12-18T00:46:01;-2.60;99.90
20070;DHT22;10195;50.868;4.382;2022-12-18T00:48:27;-2.60;99.90
20070;DHT22;10195;50.868;4.382;2022-12-18T00:50:53;-2.60;99.90
20070;DHT22;10195;50.868;4.382;2022-12-18T00:53:18;-2.60;99.90
20070;DHT22;10195;50.868;4.382;2022-12-18T00:55:45;-2.50;99.90
20070;DHT22;10195;50.868;4.382;2022-12-18T00:58:11;-2.50;99.90
20070;DHT22;10195;50.868;4.382;2022-12-18T01:00:37;-2.50;99.90
20070;DHT22;10195;50.868;4.382;2022-12-18T01:03:03;-2.50;99.90
20070;DHT22;10195;50.868;4.382;2022-12-18T01:05:29;-2.50;99.90
20070;DHT22;10195;50.868;4.382;2022-12-18T01:07:55;-2.50;99.90
20070;DHT22;10195;50.868;4.382;2022-12-18T01:10:21;-2.50;99.90
20070;DHT22;10195;50.868;4.382;2022-12-18T01:12:47;-2.40;99.90
20070;DHT22;10195;50.868;4.382;2022-12-18T01:15:14;-2.40;99.90
20070;DHT22;10195;50.868;4.382;2022-12-18T01:17:40;-2.40;99.90
20070;DHT22;10195;50.868;4.382;2022-12-18T01:20:07;-2.40;99.90
20070;DHT22;10195;50.868;4.382;2022-12-18T01:22:34;-2.50;99.90
20070;DHT22;10195;50.868;4.382;2022-12-18T01:25:00;-2.50;99.90
20070;DHT22;10195;50.868;4.382;2022-12-18T01:27:25;-2.60;99.90
20070;DHT22;10195;50.868;4.382;2022-12-18T01:29:51;-2.50;99.90
20070;DHT22;10195;50.868;4.382;2022-12-18T01:32:17;-2.20;99.90
20070;DHT22;10195;50.868;4.382;2022-12-18T01:34:43;-2.10;99.90
20070;DHT22;10195;50.868;4.382;2022-12-18T01:37:08;-2.10;99.90
20070;DHT22;10195;50.868;4.382;2022-12-18T01:39:34;-2.10;99.90
20070;DHT22;10195;50.868;4.382;2022-12-18T01:42:02;-2.30;99.90
20070;DHT22;10195;50.868;4.382;2022-12-18T01:49:58;-2.40;99.90
20070;DHT22;10195;50.868;4.382;2022-12-18T01:52:26;-2.40;99.90
20070;DHT22;10195;50.868;4.382;2022-12-18T01:54:53;-2.40;99.90
20070;DHT22;10195;50.868;4.382;2022-12-18T01:57:20;-2.50;99.90
20070;DHT22;10195;50.868;4.382;2022-12-18T01:59:50;-2.50;99.90
20070;DHT22;10195;50.868;4.382;2022-12-18T02:02:18;-2.60;99.90
20070;DHT22;10195;50.868;4.382;2022-12-18T02:04:44;-2.70;99.90
20070;DHT22;10195;50.868;4.382;2022-12-18T02:07:36;-2.80;99.90
20070;DHT22;10195;50.868;4.382;2022-12-18T02:15:28;-2.90;99.90
20070;DHT22;10195;50.868;4.382;2022-12-18T02:18:10;-2.90;99.90
20070;DHT22;10195;50.868;4.382;2022-12-18T02:28:55;-2.90;99.90
20070;DHT22;10195;50.868;4.382;2022-12-18T02:31:25;-2.90;99.90
20070;DHT22;10195;50.868;4.382;2022-12-18T02:33:56;-2.80;99.90
20070;DHT22;10195;50.868;4.382;2022-12-18T02:36:25;-2.80;99.90
20070;DHT22;10195;50.868;4.382;2022-12-18T02:38:52;-2.80;99.90
20070;DHT22;10195;50.868;4.382;2022-12-18T02:41:19;-2.80;99.90
20070;DHT22;10195;50.868;4.382;2022-12-18T02:43:49;-2.80;99.90
20070;DHT22;10195;50.868;4.382;2022-12-18T02:46:42;-2.80;99.90
20070;DHT22;10195;50.868;4.382;2022-12-18T02:52:11;-2.80;99.90
20070;DHT22;10195;50.868;4.382;2022-12-18T02:55:05;-2.80;99.90
20070;DHT22;10195;50.868;4.382;2022-12-18T03:00:18;-3.10;99.90
20070;DHT22;10195;50.868;4.382;2022-12-18T03:03:40;-3.10;99.90
20070;DHT22;10195;50.868;4.382;2022-12-18T03:06:00;-3.10;99.90
20070;DHT22;10195;50.868;4.382;2022-12-18T03:08:36;-3.10;99.90
20070;DHT22;10195;50.868;4.382;2022-12-18T03:11:06;-3.10;99.90
20070;DHT22;10195;50.868;4.382;2022-12-18T03:16:01;-3.20;99.90
20070;DHT22;10195;50.868;4.382;2022-12-18T03:18:34;-3.10;99.90
20070;DHT22;10195;50.868;4.382;2022-12-18T03:21:04;-3.00;99.90
20070;DHT22;10195;50.868;4.382;2022-12-18T03:23:35;-3.00;99.90
20070;DHT22;10195;50.868;4.382;2022-12-18T03:26:07;-2.80;99.90
20070;DHT22;10195;50.868;4.382;2022-12-18T03:28:38;-2.90;99.90
20070;DHT22;10195;50.868;4.382;2022-12-18T03:31:05;-3.00;99.90
20070;DHT22;10195;50.868;4.382;2022-12-18T03:33:47;-3.00;99.90
20070;DHT22;10195;50.868;4.382;2022-12-18T03:36:16;-3.10;99.90
20070;DHT22;10195;50.868;4.382;2022-12-18T03:38:42;-3.20;99.90
20070;DHT22;10195;50.868;4.382;2022-12-18T03:44:21;-3.40;99.90
20070;DHT22;10195;50.868;4.382;2022-12-18T03:47:05;-3.40;99.90
20070;DHT22;10195;50.868;4.382;2022-12-18T03:52:10;-3.30;99.90
20070;DHT22;10195;50.868;4.382;2022-12-18T03:54:37;-3.30;99.90
20070;DHT22;10195;50.868;4.382;2022-12-18T03:57:19;-3.30;99.90
20070;DHT22;10195;50.868;4.382;2022-12-18T03:59:46;-3.30;99.90
20070;DHT22;10195;50.868;4.382;2022-12-18T04:02:15;-3.30;99.90
20070;DHT22;10195;50.868;4.382;2022-12-18T04:04:42;-3.30;99.90
20070;DHT22;10195;50.868;4.382;2022-12-18T04:07:09;-3.30;99.90
20070;DHT22;10195;50.868;4.382;2022-12-18T04:09:36;-3.30;99.90
20070;DHT22;10195;50.868;4.382;2022-12-18T04:12:03;-3.20;99.90
20070;DHT22;10195;50.868;4.382;2022-12-18T04:14:29;-3.20;99.90
20070;DHT22;10195;50.868;4.382;2022-12-18T04:16:54;-3.20;99.90
20070;DHT22;10195;50.868;4.382;2022-12-18T04:19:20;-3.40;99.90
20070;DHT22;10195;50.868;4.382;2022-12-18T04:21:46;-3.40;99.90
20070;DHT22;10195;50.868;4.382;2022-12-18T04:24:11;-3.40;99.90
20070;DHT22;10195;50.868;4.382;2022-12-18T04:26:37;-3.50;99.90
20070;DHT22;10195;50.868;4.382;2022-12-18T04:29:03;-3.50;99.90
20070;DHT22;10195;50.868;4.382;2022-12-18T04:31:29;-3.50;99.90
20070;DHT22;10195;50.868;4.382;2022-12-18T04:33:54;-3.60;99.90
20070;DHT22;10195;50.868;4.382;2022-12-18T04:36:20;-3.60;99.90
20070;DHT22;10195;50.868;4.382;2022-12-18T04:38:46;-3.50;99.90
20070;DHT22;10195;50.868;4.382;2022-12-18T04:41:12;-3.60;99.90
20070;DHT22;10195;50.868;4.382;2022-12-18T04:43:37;-3.60;99.90
20070;DHT22;10195;50.868;4.382;2022-12-18T04:46:07;-3.70;99.90
20070;DHT22;10195;50.868;4.382;2022-12-18T04:48:33;-3.60;99.90
20070;DHT22;10195;50.868;4.382;2022-12-18T04:50:59;-3.60;99.90
20070;DHT22;10195;50.868;4.382;2022-12-18T04:53:25;-3.50;99.90
20070;DHT22;10195;50.868;4.382;2022-12-18T04:55:50;-3.50;99.90
20070;DHT22;10195;50.868;4.382;2022-12-18T04:58:16;-3.50;99.90
20070;DHT22;10195;50.868;4.382;2022-12-18T05:00:42;-3.40;99.90
20070;DHT22;10195;50.868;4.382;2022-12-18T05:03:07;-3.40;99.90
20070;DHT22;10195;50.868;4.382;2022-12-18T05:05:35;-3.50;99.90
20070;DHT22;10195;50.868;4.382;2022-12-18T05:08:01;-3.50;99.90
20070;DHT22;10195;50.868;4.382;2022-12-18T05:10:26;-3.50;99.90
20070;DHT22;10195;50.868;4.382;2022-12-18T05:12:52;-3.50;99.90
20070;DHT22;10195;50.868;4.382;2022-12-18T05:15:26;-3.50;99.90
20070;DHT22;10195;50.868;4.382;2022-12-18T05:17:52;-3.50;99.90
20070;DHT22;10195;50.868;4.382;2022-12-18T05:20:17;-3.60;99.90
20070;DHT22;10195;50.868;4.382;2022-12-18T05:22:43;-3.70;99.90
20070;DHT22;10195;50.868;4.382;2022-12-18T05:25:09;-3.70;99.90
20070;DHT22;10195;50.868;4.382;2022-12-18T05:27:35;-3.80;99.90
20070;DHT22;10195;50.868;4.382;2022-12-18T05:30:00;-3.70;99.90
20070;DHT22;10195;50.868;4.382;2022-12-18T05:32:26;-3.70;99.90
20070;DHT22;10195;50.868;4.382;2022-12-18T05:34:52;-3.50;99.90
20070;DHT22;10195;50.868;4.382;2022-12-18T05:37:17;-3.50;99.90
20070;DHT22;10195;50.868;4.382;2022-12-18T05:39:44;-3.50;99.90
20070;DHT22;10195;50.868;4.382;2022-12-18T05:42:09;-3.50;99.90
20070;DHT22;10195;50.868;4.382;2022-12-18T05:44:35;-3.50;99.90
20070;DHT22;10195;50.868;4.382;2022-12-18T05:47:01;-3.50;99.90
20070;DHT22;10195;50.868;4.382;2022-12-18T05:49:26;-3.50;99.90
20070;DHT22;10195;50.868;4.382;2022-12-18T05:51:52;-3.50;99.90
20070;DHT22;10195;50.868;4.382;2022-12-18T05:54:17;-3.60;99.90
20070;DHT22;10195;50.868;4.382;2022-12-18T05:56:43;-3.50;99.90
20070;DHT22;10195;50.868;4.382;2022-12-18T05:59:09;-3.50;99.90
20070;DHT22;10195;50.868;4.382;2022-12-18T06:01:35;-3.30;99.90
20070;DHT22;10195;50.868;4.382;2022-12-18T06:04:00;-3.30;99.90
20070;DHT22;10195;50.868;4.382;2022-12-18T06:06:27;-3.40;99.90
20070;DHT22;10195;50.868;4.382;2022-12-18T06:08:54;-3.50;99.90
20070;DHT22;10195;50.868;4.382;2022-12-18T06:11:24;-3.50;99.90
20070;DHT22;10195;50.868;4.382;2022-12-18T06:13:51;-3.50;99.90
20070;DHT22;10195;50.868;4.382;2022-12-18T06:16:17;-3.50;99.90
20070;DHT22;10195;50.868;4.382;2022-12-18T06:18:43;-3.50;99.90
20070;DHT22;10195;50.868;4.382;2022-12-18T06:21:08;-3.50;99.90
20070;DHT22;10195;50.868;4.382;2022-12-18T06:23:34;-3.30;99.90
20070;DHT22;10195;50.868;4.382;2022-12-18T06:26:06;-3.40;99.90
20070;DHT22;10195;50.868;4.382;2022-12-18T06:28:33;-3.40;99.90
20070;DHT22;10195;50.868;4.382;2022-12-18T06:30:58;-3.50;99.90
20070;DHT22;10195;50.868;4.382;2022-12-18T06:33:26;-3.50;99.90
20070;DHT22;10195;50.868;4.382;2022-12-18T06:35:52;-3.40;99.90
20070;DHT22;10195;50.868;4.382;2022-12-18T06:38:18;-3.40;99.90
20070;DHT22;10195;50.868;4.382;2022-12-18T06:40:43;-3.40;99.90
20070;DHT22;10195;50.868;4.382;2022-12-18T06:43:09;-3.40;99.90
20070;DHT22;10195;50.868;4.382;2022-12-18T06:45:34;-3.40;99.90
20070;DHT22;10195;50.868;4.382;2022-12-18T06:48:00;-3.40;99.90
20070;DHT22;10195;50.868;4.382;2022-12-18T06:50:26;-3.30;99.90
20070;DHT22;10195;50.868;4.382;2022-12-18T06:52:52;-3.20;99.90
20070;DHT22;10195;50.868;4.382;2022-12-18T06:55:17;-3.30;99.90
20070;DHT22;10195;50.868;4.382;2022-12-18T06:57:43;-3.30;99.90
20070;DHT22;10195;50.868;4.382;2022-12-18T07:00:09;-3.20;99.90
20070;DHT22;10195;50.868;4.382;2022-12-18T07:02:35;-3.20;99.90
20070;DHT22;10195;50.868;4.382;2022-12-18T07:05:01;-3.20;99.90
20070;DHT22;10195;50.868;4.382;2022-12-18T07:07:27;-3.20;99.90
20070;DHT22;10195;50.868;4.382;2022-12-18T07:09:53;-3.20;99.90
20070;DHT22;10195;50.868;4.382;2022-12-18T07:12:19;-3.20;99.90
20070;DHT22;10195;50.868;4.382;2022-12-18T07:14:44;-3.20;99.90
20070;DHT22;10195;50.868;4.382;2022-12-18T07:17:10;-3.10;99.90
20070;DHT22;10195;50.868;4.382;2022-12-18T07:19:36;-3.20;99.90
20070;DHT22;10195;50.868;4.382;2022-12-18T07:22:02;-3.20;99.90
20070;DHT22;10195;50.868;4.382;2022-12-18T07:24:27;-3.20;99.90
20070;DHT22;10195;50.868;4.382;2022-12-18T07:26:53;-3.10;99.90
20070;DHT22;10195;50.868;4.382;2022-12-18T07:29:19;-3.10;99.90
20070;DHT22;10195;50.868;4.382;2022-12-18T07:31:45;-3.00;99.90
20070;DHT22;10195;50.868;4.382;2022-12-18T07:34:11;-3.10;99.90
20070;DHT22;10195;50.868;4.382;2022-12-18T07:36:38;-3.20;99.90
20070;DHT22;10195;50.868;4.382;2022-12-18T07:39:03;-3.20;99.90
20070;DHT22;10195;50.868;4.382;2022-12-18T07:41:29;-3.20;99.90
20070;DHT22;10195;50.868;4.382;2022-12-18T07:43:58;-3.20;99.90
20070;DHT22;10195;50.868;4.382;2022-12-18T07:46:26;-3.20;99.90
20070;DHT22;10195;50.868;4.382;2022-12-18T07:48:51;-3.20;99.90
20070;DHT22;10195;50.868;4.382;2022-12-18T07:51:20;-3.20;99.90
20070;DHT22;10195;50.868;4.382;2022-12-18T07:53:49;-3.20;99.90
20070;DHT22;10195;50.868;4.382;2022-12-18T07:56:15;-3.30;99.90
20070;DHT22;10195;50.868;4.382;2022-12-18T07:58:40;-3.20;99.90
20070;DHT22;10195;50.868;4.382;2022-12-18T08:01:10;-3.20;99.90
20070;DHT22;10195;50.868;4.382;2022-12-18T08:03:37;-3.20;99.90
20070;DHT22;10195;50.868;4.382;2022-12-18T08:06:05;-3.10;99.90
20070;DHT22;10195;50.868;4.382;2022-12-18T08:08:33;-3.10;99.90
20070;DHT22;10195;50.868;4.382;2022-12-18T08:10:58;-3.00;99.90
20070;DHT22;10195;50.868;4.382;2022-12-18T08:13:24;-3.00;99.90
20070;DHT22;10195;50.868;4.382;2022-12-18T08:16:01;-2.90;99.90
20070;DHT22;10195;50.868;4.382;2022-12-18T08:18:27;-3.10;99.90
20070;DHT22;10195;50.868;4.382;2022-12-18T08:20:54;-3.10;99.90
20070;DHT22;10195;50.868;4.382;2022-12-18T08:23:20;-3.00;99.90
20070;DHT22;10195;50.868;4.382;2022-12-18T08:25:45;-2.90;99.90
20070;DHT22;10195;50.868;4.382;2022-12-18T08:28:11;-2.70;99.90
20070;DHT22;10195;50.868;4.382;2022-12-18T08:30:37;-2.60;99.90
20070;DHT22;10195;50.868;4.382;2022-12-18T08:33:02;-2.50;99.90
20070;DHT22;10195;50.868;4.382;2022-12-18T08:35:28;-2.30;99.90
20070;DHT22;10195;50.868;4.382;2022-12-18T08:37:54;-2.20;99.90
20070;DHT22;10195;50.868;4.382;2022-12-18T08:40:19;-2.00;99.90
20070;DHT22;10195;50.868;4.382;2022-12-18T08:42:45;-1.80;99.90
20070;DHT22;10195;50.868;4.382;2022-12-18T08:45:29;-1.60;99.90
20070;DHT22;10195;50.868;4.382;2022-12-18T08:47:55;-1.60;99.90
20070;DHT22;10195;50.868;4.382;2022-12-18T08:50:20;-1.40;99.90
20070;DHT22;10195;50.868;4.382;2022-12-18T08:52:51;-1.20;99.90
20070;DHT22;10195;50.868;4.382;2022-12-18T08:55:17;-1.10;99.90
20070;DHT22;10195;50.868;4.382;2022-12-18T08:57:42;-1.10;99.90
20070;DHT22;10195;50.868;4.382;2022-12-18T09:00:08;-1.00;99.90
20070;DHT22;10195;50.868;4.382;2022-12-18T09:02:34;-0.80;99.90
20070;DHT22;10195;50.868;4.382;2022-12-18T09:05:00;-0.60;99.90
20070;DHT22;10195;50.868;4.382;2022-12-18T09:07:25;-0.40;99.90
20070;DHT22;10195;50.868;4.382;2022-12-18T09:09:51;-0.30;99.90
20070;DHT22;10195;50.868;4.382;2022-12-18T09:12:17;-0.10;99.90
20070;DHT22;10195;50.868;4.382;2022-12-18T09:14:42;0.10;99.90
20070;DHT22;10195;50.868;4.382;2022-12-18T09:17:08;0.20;99.90
20070;DHT22;10195;50.868;4.382;2022-12-18T09:19:34;0.40;99.90
20070;DHT22;10195;50.868;4.382;2022-12-18T09:22:00;0.40;99.90
20070;DHT22;10195;50.868;4.382;2022-12-18T09:24:26;0.50;99.90
20070;DHT22;10195;50.868;4.382;2022-12-18T09:26:54;0.70;99.90
20070;DHT22;10195;50.868;4.382;2022-12-18T09:29:20;0.60;99.90
20070;DHT22;10195;50.868;4.382;2022-12-18T09:31:46;0.70;99.90
20070;DHT22;10195;50.868;4.382;2022-12-18T09:34:12;0.60;99.90
20070;DHT22;10195;50.868;4.382;2022-12-18T09:36:37;0.60;99.90
20070;DHT22;10195;50.868;4.382;2022-12-18T09:39:03;0.50;99.90
20070;DHT22;10195;50.868;4.382;2022-12-18T09:41:54;0.20;99.90
20070;DHT22;10195;50.868;4.382;2022-12-18T09:44:35;0.30;99.90
20070;DHT22;10195;50.868;4.382;2022-12-18T09:47:30;0.30;99.90
20070;DHT22;10195;50.868;4.382;2022-12-18T09:50:01;0.50;99.90
20070;DHT22;10195;50.868;4.382;2022-12-18T09:52:39;0.70;99.90
20070;DHT22;10195;50.868;4.382;2022-12-18T09:58:04;0.60;99.90
20070;DHT22;10195;50.868;4.382;2022-12-18T10:00:31;0.60;99.90
20070;DHT22;10195;50.868;4.382;2022-12-18T10:03:05;0.40;99.90
20070;DHT22;10195;50.868;4.382;2022-12-18T10:14:05;0.50;99.90
20070;DHT22;10195;50.868;4.382;2022-12-18T10:16:41;0.60;99.90
20070;DHT22;10195;50.868;4.382;2022-12-18T10:25:20;1.10;99.90
20070;DHT22;10195;50.868;4.382;2022-12-18T10:27:47;1.10;99.90
20070;DHT22;10195;50.868;4.382;2022-12-18T10:30:20;1.10;99.90
20070;DHT22;10195;50.868;4.382;2022-12-18T10:32:46;1.10;99.90
20070;DHT22;10195;50.868;4.382;2022-12-18T10:35:24;1.10;99.90
20070;DHT22;10195;50.868;4.382;2022-12-18T10:40:57;1.20;99.90
20070;DHT22;10195;50.868;4.382;2022-12-18T10:43:34;1.20;99.90
20070;DHT22;10195;50.868;4.382;2022-12-18T10:48:32;1.40;99.90
20070;DHT22;10195;50.868;4.382;2022-12-18T10:51:01;1.50;99.90
20070;DHT22;10195;50.868;4.382;2022-12-18T10:53:30;1.60;99.90
20070;DHT22;10195;50.868;4.382;2022-12-18T10:55:58;1.80;99.90
20070;DHT22;10195;50.868;4.382;2022-12-18T10:58:32;1.60;99.90
20070;DHT22;10195;50.868;4.382;2022-12-18T11:01:05;1.70;99.90
20070;DHT22;10195;50.868;4.382;2022-12-18T11:03:40;1.70;99.90
20070;DHT22;10195;50.868;4.382;2022-12-18T11:06:15;1.90;99.90
20070;DHT22;10195;50.868;4.382;2022-12-18T11:08:43;2.00;99.90
20070;DHT22;10195;50.868;4.382;2022-12-18T11:11:21;2.20;99.90
20070;DHT22;10195;50.868;4.382;2022-12-18T11:13:57;2.00;99.90
20070;DHT22;10195;50.868;4.382;2022-12-18T11:16:24;1.60;99.90
20070;DHT22;10195;50.868;4.382;2022-12-18T11:18:50;1.60;99.90
20070;DHT22;10195;50.868;4.382;2022-12-18T11:21:16;1.60;99.90
20070;DHT22;10195;50.868;4.382;2022-12-18T11:23:52;1.70;99.90
20070;DHT22;10195;50.868;4.382;2022-12-18T11:26:19;1.90;99.90
20070;DHT22;10195;50.868;4.382;2022-12-18T11:28:49;1.90;99.90
20070;DHT22;10195;50.868;4.382;2022-12-18T11:31:25;1.70;99.90
20070;DHT22;10195;50.868;4.382;2022-12-18T11:34:10;1.90;99.90
20070;DHT22;10195;50.868;4.382;2022-12-18T11:36:46;2.00;99.90
20070;DHT22;10195;50.868;4.382;2022-12-18T11:39:38;2.20;99.90
20070;DHT22;10195;50.868;4.382;2022-12-18T11:50:28;2.40;99.90
20070;DHT22;10195;50.868;4.382;2022-12-18T11:52:56;2.70;99.90
20070;DHT22;10195;50.868;4.382;2022-12-18T12:00:30;2.30;99.90
20070;DHT22;10195;50.868;4.382;2022-12-18T12:03:27;2.00;99.90
20070;DHT22;10195;50.868;4.382;2022-12-18T12:16:59;2.10;99.90
20070;DHT22;10195;50.868;4.382;2022-12-18T12:20:02;2.10;99.90
20070;DHT22;10195;50.868;4.382;2022-12-18T12:23:09;2.20;99.90
20070;DHT22;10195;50.868;4.382;2022-12-18T12:25:46;2.20;99.90
20070;DHT22;10195;50.868;4.382;2022-12-18T12:29:16;2.30;99.90
20070;DHT22;10195;50.868;4.382;2022-12-18T12:31:50;2.30;99.90
20070;DHT22;10195;50.868;4.382;2022-12-18T12:34:24;2.50;99.90
20070;DHT22;10195;50.868;4.382;2022-12-18T12:37:28;2.50;99.90
20070;DHT22;10195;50.868;4.382;2022-12-18T12:39:56;2.60;99.90
20070;DHT22;10195;50.868;4.382;2022-12-18T12:42:38;2.40;99.90
20070;DHT22;10195;50.868;4.382;2022-12-18T12:45:34;2.50;99.90
20070;DHT22;10195;50.868;4.382;2022-12-18T12:48:02;2.40;99.90
20070;DHT22;10195;50.868;4.382;2022-12-18T12:50:33;2.50;99.90
20070;DHT22;10195;50.868;4.382;2022-12-18T12:53:01;2.40;99.90
20070;DHT22;10195;50.868;4.382;2022-12-18T12:55:30;2.40;99.90
20070;DHT22;10195;50.868;4.382;2022-12-18T12:58:07;2.50;99.90
20070;DHT22;10195;50.868;4.382;2022-12-18T13:00:52;2.70;99.90
20070;DHT22;10195;50.868;4.382;2022-12-18T13:08:59;2.80;99.90
20070;DHT22;10195;50.868;4.382;2022-12-18T13:11:46;2.70;99.90
20070;DHT22;10195;50.868;4.382;2022-12-18T13:14:43;2.70;99.90
20070;DHT22;10195;50.868;4.382;2022-12-18T13:20:09;2.70;99.90
20070;DHT22;10195;50.868;4.382;2022-12-18T13:22:42;2.80;99.90
20070;DHT22;10195;50.868;4.382;2022-12-18T13:25:40;2.90;99.90
20070;DHT22;10195;50.868;4.382;2022-12-18T13:28:14;2.80;99.90
20070;DHT22;10195;50.868;4.382;2022-12-18T13:41:01;3.00;99.90
20070;DHT22;10195;50.868;4.382;2022-12-18T13:43:34;2.80;99.90
20070;DHT22;10195;50.868;4.382;2022-12-18T13:51:42;2.70;99.90
20070;DHT22;10195;50.868;4.382;2022-12-18T13:54:34;2.60;99.90
20070;DHT22;10195;50.868;4.382;2022-12-18T13:57:01;2.80;99.90
20070;DHT22;10195;50.868;4.382;2022-12-18T13:59:39;2.70;99.90
20070;DHT22;10195;50.868;4.382;2022-12-18T14:02:22;2.60;99.90
20070;DHT22;10195;50.868;4.382;2022-12-18T14:04:48;2.50;99.90
20070;DHT22;10195;50.868;4.382;2022-12-18T14:07:21;2.30;99.90
20070;DHT22;10195;50.868;4.382;2022-12-18T14:09:56;2.10;99.90
20070;DHT22;10195;50.868;4.382;2022-12-18T14:12:25;2.20;99.90
20070;DHT22;10195;50.868;4.382;2022-12-18T14:17:50;2.00;99.90
20070;DHT22;10195;50.868;4.382;2022-12-18T14:20:17;2.00;99.90
20070;DHT22;10195;50.868;4.382;2022-12-18T14:22:45;2.00;99.90
20070;DHT22;10195;50.868;4.382;2022-12-18T14:25:25;1.90;99.90
20070;DHT22;10195;50.868;4.382;2022-12-18T14:33:22;2.20;99.90
20070;DHT22;10195;50.868;4.382;2022-12-18T14:35:57;2.20;99.90
20070;DHT22;10195;50.868;4.382;2022-12-18T14:38:38;2.10;99.90
20070;DHT22;10195;50.868;4.382;2022-12-18T14:41:12;2.10;99.90
20070;DHT22;10195;50.868;4.382;2022-12-18T14:43:40;2.10;99.90
20070;DHT22;10195;50.868;4.382;2022-12-18T14:48:59;2.40;99.90
20070;DHT22;10195;50.868;4.382;2022-12-18T14:51:27;2.40;99.90
20070;DHT22;10195;50.868;4.382;2022-12-18T14:54:01;2.20;99.90
20070;DHT22;10195;50.868;4.382;2022-12-18T14:56:33;2.00;99.90
20070;DHT22;10195;50.868;4.382;2022-12-18T15:03:55;2.10;99.90
20070;DHT22;10195;50.868;4.382;2022-12-18T15:06:28;2.20;99.90
20070;DHT22;10195;50.868;4.382;2022-12-18T15:08:54;2.00;99.90
20070;DHT22;10195;50.868;4.382;2022-12-18T15:13:51;2.00;99.90
20070;DHT22;10195;50.868;4.382;2022-12-18T15:16:17;2.10;99.90
20070;DHT22;10195;50.868;4.382;2022-12-18T15:18:43;2.10;99.90
20070;DHT22;10195;50.868;4.382;2022-12-18T15:21:11;2.10;99.90
20070;DHT22;10195;50.868;4.382;2022-12-18T15:26:14;2.20;99.90
20070;DHT22;10195;50.868;4.382;2022-12-18T15:34:05;2.20;99.90
20070;DHT22;10195;50.868;4.382;2022-12-18T15:36:26;2.10;99.90
20070;DHT22;10195;50.868;4.382;2022-12-18T15:38:53;2.10;99.90
20070;DHT22;10195;50.868;4.382;2022-12-18T15:41:21;2.10;99.90
20070;DHT22;10195;50.868;4.382;2022-12-18T15:43:48;2.10;99.90
20070;DHT22;10195;50.868;4.382;2022-12-18T15:46:16;2.10;99.90
20070;DHT22;10195;50.868;4.382;2022-12-18T15:48:45;2.20;99.90
20070;DHT22;10195;50.868;4.382;2022-12-18T15:51:19;2.30;99.90
20070;DHT22;10195;50.868;4.382;2022-12-18T15:53:46;2.40;99.90
20070;DHT22;10195;50.868;4.382;2022-12-18T15:56:14;2.40;99.90
20070;DHT22;10195;50.868;4.382;2022-12-18T15:58:58;2.20;99.90
20070;DHT22;10195;50.868;4.382;2022-12-18T16:01:27;2.10;99.90
20070;DHT22;10195;50.868;4.382;2022-12-18T16:03:53;2.20;99.90
20070;DHT22;10195;50.868;4.382;2022-12-18T16:06:20;2.20;99.90
20070;DHT22;10195;50.868;4.382;2022-12-18T16:08:46;2.20;99.90
20070;DHT22;10195;50.868;4.382;2022-12-18T16:11:27;2.30;99.90
20070;DHT22;10195;50.868;4.382;2022-12-18T16:14:20;2.20;99.90
20070;DHT22;10195;50.868;4.382;2022-12-18T16:16:48;2.30;99.90
20070;DHT22;10195;50.868;4.382;2022-12-18T16:19:14;2.30;99.90
20070;DHT22;10195;50.868;4.382;2022-12-18T16:21:41;2.30;99.90
20070;DHT22;10195;50.868;4.382;2022-12-18T16:24:16;2.30;99.90
20070;DHT22;10195;50.868;4.382;2022-12-18T16:26:42;2.30;99.90
20070;DHT22;10195;50.868;4.382;2022-12-18T16:29:09;2.50;99.90
20070;DHT22;10195;50.868;4.382;2022-12-18T16:31:35;2.50;99.90
20070;DHT22;10195;50.868;4.382;2022-12-18T16:34:21;2.40;99.90
20070;DHT22;10195;50.868;4.382;2022-12-18T16:36:53;2.40;99.90
20070;DHT22;10195;50.868;4.382;2022-12-18T16:39:19;2.40;99.90
20070;DHT22;10195;50.868;4.382;2022-12-18T16:41:45;2.40;99.90
20070;DHT22;10195;50.868;4.382;2022-12-18T16:44:12;2.40;99.90
20070;DHT22;10195;50.868;4.382;2022-12-18T16:46:38;2.40;99.90
20070;DHT22;10195;50.868;4.382;2022-12-18T16:49:04;2.50;99.90
20070;DHT22;10195;50.868;4.382;2022-12-18T16:51:30;2.40;99.90
20070;DHT22;10195;50.868;4.382;2022-12-18T16:53:56;2.50;99.90
20070;DHT22;10195;50.868;4.382;2022-12-18T16:56:22;2.50;99.90
20070;DHT22;10195;50.868;4.382;2022-12-18T16:58:55;2.50;99.90
20070;DHT22;10195;50.868;4.382;2022-12-18T17:01:25;2.40;99.90
20070;DHT22;10195;50.868;4.382;2022-12-18T17:04:00;2.40;99.90
20070;DHT22;10195;50.868;4.382;2022-12-18T17:06:28;2.50;99.90
20070;DHT22;10195;50.868;4.382;2022-12-18T17:08:55;2.60;99.90
20070;DHT22;10195;50.868;4.382;2022-12-18T17:11:23;2.60;99.90
20070;DHT22;10195;50.868;4.382;2022-12-18T17:13:49;2.70;99.90
20070;DHT22;10195;50.868;4.382;2022-12-18T17:16:15;2.70;99.90
20070;DHT22;10195;50.868;4.382;2022-12-18T17:18:42;2.60;99.90
20070;DHT22;10195;50.868;4.382;2022-12-18T17:21:09;2.70;99.90
20070;DHT22;10195;50.868;4.382;2022-12-18T17:23:35;2.60;99.90
20070;DHT22;10195;50.868;4.382;2022-12-18T17:26:02;2.70;99.90
20070;DHT22;10195;50.868;4.382;2022-12-18T17:28:29;2.80;99.90
20070;DHT22;10195;50.868;4.382;2022-12-18T17:30:55;2.80;99.90
20070;DHT22;10195;50.868;4.382;2022-12-18T17:33:22;2.90;99.90
20070;DHT22;10195;50.868;4.382;2022-12-18T17:35:48;2.80;99.90
20070;DHT22;10195;50.868;4.382;2022-12-18T17:38:14;2.80;99.90
20070;DHT22;10195;50.868;4.382;2022-12-18T17:40:40;2.90;99.90
20070;DHT22;10195;50.868;4.382;2022-12-18T17:43:10;2.80;99.90
20070;DHT22;10195;50.868;4.382;2022-12-18T17:45:39;2.80;99.90
20070;DHT22;10195;50.868;4.382;2022-12-18T17:48:06;2.70;99.90
20070;DHT22;10195;50.868;4.382;2022-12-18T17:50:35;2.80;99.90
20070;DHT22;10195;50.868;4.382;2022-12-18T17:53:00;2.70;99.90
20070;DHT22;10195;50.868;4.382;2022-12-18T17:55:27;2.60;99.90
20070;DHT22;10195;50.868;4.382;2022-12-18T17:57:53;2.70;99.90
20070;DHT22;10195;50.868;4.382;2022-12-18T18:00:19;2.60;99.90
20070;DHT22;10195;50.868;4.382;2022-12-18T18:02:45;2.60;99.90
20070;DHT22;10195;50.868;4.382;2022-12-18T18:05:11;2.50;99.90